| time (UTC) | temp C | wind direction | speed KPH | gust KPH | rain 1hr cm | rain 24hr cm | rain mn cm | humidity % | barometer mb |
| 20260507002833 | -17 | 0.0 | 0.0 | 0.00 | 0.00 | 0.00 | 1010.1 | ||
| 20260507002329 | -17 | 0.0 | 0.0 | 0.00 | 0.00 | 0.00 | 1009.9 | ||
| 20260507001827 | -17 | 0.0 | 0.0 | 0.00 | 0.00 | 0.00 | 1009.9 | ||
| 20260507001324 | -17 | 0.0 | 0.0 | 0.00 | 0.00 | 0.00 | 1009.8 | ||
| 20260507000820 | -17 | 0.0 | 0.0 | 0.00 | 0.00 | 0.00 | 1009.7 | ||
| 20260507000316 | -17 | 0.0 | 0.0 | 0.00 | 0.00 | 0.00 | 1009.6 | ||
| 20260506235812 | -17 | 0.0 | 0.0 | 0.00 | 0.00 | 0.00 | 1009.6 | ||
| 20260506235309 | -17 | 0.0 | 0.0 | 0.00 | 0.00 | 0.00 | 1009.4 | ||
| 20260506234805 | -17 | 0.0 | 0.0 | 0.00 | 0.00 | 0.00 | 1009.2 | ||
| 20260506234303 | 6 | 21 | 0.0 | 0.0 | 0.00 | 1.98 | 1.98 | 99 | 1009.3 |
| 20260506233800 | 6 | 21 | 0.0 | 0.0 | 0.00 | 1.98 | 1.98 | 99 | 1009.1 |
| 20260506233251 | 6 | 71 | 1.6 | 1.6 | 0.00 | 1.98 | 1.98 | 99 | 1009.1 |
| 20260506232747 | 6 | 71 | 1.6 | 1.6 | 0.00 | 1.98 | 1.98 | 99 | 1009.0 |
| 20260506232242 | 6 | 68 | 0.0 | 0.0 | 0.00 | 1.98 | 1.98 | 99 | 1009.0 |
| 20260506231740 | 6 | 33 | 0.0 | 0.0 | 0.00 | 1.98 | 1.98 | 99 | 1008.8 |
| 20260506231238 | 6 | 14 | 0.0 | 0.0 | 0.13 | 1.98 | 1.98 | 99 | 1008.8 |
| 20260506230735 | 6 | 89 | 0.0 | 0.0 | 0.13 | 1.98 | 1.98 | 99 | 1008.7 |
| 20260506230231 | -17 | 0.0 | 0.0 | 0.00 | 0.00 | 0.00 | 1008.6 | ||
| 20260506225728 | 6 | 76 | 0.0 | 0.0 | 0.00 | 1.96 | 1.96 | 99 | 1008.8 |
| 20260506225225 | 6 | 76 | 0.0 | 0.0 | 0.00 | 1.96 | 1.96 | 99 | 1008.9 |
| 20260506224721 | 6 | 76 | 0.0 | 0.0 | 0.00 | 1.96 | 1.96 | 99 | 1008.7 |
| 20260506224219 | -17 | 0.0 | 0.0 | 0.00 | 0.00 | 0.00 | 1008.7 | ||
| 20260506223715 | -17 | 0.0 | 0.0 | 0.00 | 0.00 | 0.00 | 1008.8 | ||
| 20260506223210 | -17 | 0.0 | 0.0 | 0.00 | 0.00 | 0.00 | 1009.0 | ||
| 20260506222708 | 6 | 343 | 4.8 | 6.4 | 0.00 | 1.96 | 1.96 | 99 | 1009.1 |
| 20260506222203 | 6 | 343 | 4.8 | 6.4 | 0.00 | 1.96 | 1.96 | 99 | 1009.0 |
| 20260506221702 | 6 | 37 | 1.6 | 3.2 | 0.00 | 1.96 | 1.96 | 99 | 1008.9 |
| 20260506221159 | 6 | 93 | 0.0 | 0.0 | 0.00 | 1.96 | 1.96 | 99 | 1008.9 |
| 20260506220656 | 6 | 348 | 3.2 | 4.8 | 0.00 | 1.96 | 1.96 | 99 | 1009.1 |
| 20260506220151 | 6 | 8 | 1.6 | 3.2 | 0.00 | 1.96 | 1.96 | 99 | 1009.0 |
| 20260506215648 | -17 | 0.0 | 0.0 | 0.00 | 0.00 | 0.00 | 1009.0 | ||
| 20260506215143 | 6 | 353 | 4.8 | 6.4 | 0.00 | 1.96 | 1.96 | 99 | 1009.0 |
| 20260506214640 | 6 | 353 | 4.8 | 6.4 | 0.00 | 1.96 | 1.96 | 99 | 1009.0 |
| 20260506214138 | 6 | 10 | 3.2 | 4.8 | 0.00 | 1.96 | 1.96 | 99 | 1009.0 |
| 20260506213636 | -17 | 0.0 | 0.0 | 0.00 | 0.00 | 0.00 | 1008.8 | ||
| 20260506213133 | -17 | 0.0 | 0.0 | 0.00 | 0.00 | 0.00 | 1008.8 | ||
| 20260506212630 | -17 | 0.0 | 0.0 | 0.00 | 0.00 | 0.00 | 1008.8 | ||
| 20260506212125 | -17 | 0.0 | 0.0 | 0.00 | 0.00 | 0.00 | 1008.9 | ||
| 20260506211620 | 6 | 17 | 12.9 | 14.5 | 0.18 | 1.96 | 1.96 | 99 | 1008.6 |
| 20260506211118 | 6 | 17 | 12.9 | 14.5 | 0.18 | 1.96 | 1.96 | 99 | 1008.6 |
| 20260506210615 | 6 | 17 | 12.9 | 14.5 | 0.18 | 1.96 | 1.96 | 99 | 1008.5 |
| 20260506210111 | -17 | 0.0 | 0.0 | 0.00 | 0.00 | 0.00 | 1008.5 | ||
| 20260506205608 | -17 | 0.0 | 0.0 | 0.00 | 0.00 | 0.00 | 1008.5 | ||
| 20260506205103 | -17 | 0.0 | 0.0 | 0.00 | 0.00 | 0.00 | 1008.7 | ||
| 20260506204601 | 6 | 352 | 6.4 | 6.4 | 0.00 | 1.93 | 1.93 | 99 | 1008.8 |
| 20260506204058 | 6 | 352 | 6.4 | 6.4 | 0.43 | 1.93 | 1.93 | 99 | 1008.9 |
| 20260506203556 | 6 | 330 | 4.8 | 6.4 | 0.43 | 1.93 | 1.93 | 99 | 1008.9 |
| 20260506203052 | -17 | 0.0 | 0.0 | 0.00 | 0.00 | 0.00 | 1008.8 | ||
| 20260506202550 | -17 | 0.0 | 0.0 | 0.00 | 0.00 | 0.00 | 1008.7 | ||
| 20260506202046 | -17 | 0.0 | 0.0 | 0.00 | 0.00 | 0.00 | 1008.6 | ||
| 20260506201544 | -17 | 0.0 | 0.0 | 0.00 | 0.00 | 0.00 | 1008.7 | ||
| 20260506201040 | 6 | 357 | 8.0 | 9.7 | 0.00 | 1.85 | 1.85 | 99 | 1008.6 |
| 20260506200536 | 6 | 357 | 8.0 | 9.7 | 0.00 | 1.85 | 1.85 | 99 | 1008.7 |
| 20260506200033 | 6 | 357 | 8.0 | 9.7 | 0.18 | 1.85 | 1.85 | 99 | 1008.6 |
| 20260506195530 | 6 | 41 | 4.8 | 6.4 | 0.18 | 1.85 | 1.85 | 99 | 1008.6 |
| 20260506195026 | 6 | 326 | 9.7 | 12.9 | 0.00 | 1.83 | 1.83 | 99 | 1008.6 |
| 20260506194524 | 6 | 31 | 4.8 | 4.8 | 0.00 | 1.83 | 1.83 | 99 | 1008.6 |
| 20260506194021 | -17 | 0.0 | 0.0 | 0.00 | 0.00 | 0.00 | 1008.7 | ||
| 20260506193518 | -17 | 0.0 | 0.0 | 0.00 | 0.00 | 0.00 | 1008.7 | ||
| 20260506193015 | 6 | 12 | 4.8 | 6.4 | 0.00 | 1.83 | 1.83 | 99 | 1008.6 |
| 20260506192512 | 6 | 62 | 3.2 | 6.4 | 0.00 | 1.83 | 1.83 | 99 | 1008.4 |
| 20260506192008 | 6 | 344 | 4.8 | 4.8 | 0.13 | 1.83 | 1.83 | 99 | 1008.3 |
| 20260506191505 | 6 | 330 | 6.4 | 6.4 | 0.13 | 1.83 | 1.83 | 99 | 1008.5 |
| 20260506191001 | 6 | 329 | 6.4 | 9.7 | 0.00 | 1.80 | 1.80 | 99 | 1008.2 |
| 20260506190458 | 6 | 330 | 4.8 | 6.4 | 0.00 | 1.80 | 1.80 | 99 | 1008.6 |
| 20260506185954 | 6 | 336 | 3.2 | 4.8 | 0.00 | 1.80 | 1.80 | 99 | 1008.3 |
| 20260506185451 | 6 | 336 | 3.2 | 4.8 | 0.18 | 1.80 | 1.80 | 99 | 1008.5 |
| 20260506184943 | 6 | 47 | 3.2 | 4.8 | 0.18 | 1.80 | 1.80 | 99 | 1008.3 |
| 20260506184440 | 6 | 350 | 1.6 | 3.2 | 0.00 | 1.78 | 1.78 | 99 | 1008.5 |
| 20260506183937 | 6 | 321 | 1.6 | 4.8 | 0.13 | 1.78 | 1.78 | 99 | 1008.7 |
| 20260506183432 | 6 | 71 | 0.0 | 0.0 | 0.13 | 1.78 | 1.78 | 99 | 1008.5 |
| 20260506182930 | 6 | 335 | 4.8 | 11.3 | 0.00 | 1.75 | 1.75 | 99 | 1008.7 |
| 20260506182427 | 6 | 335 | 4.8 | 11.3 | 0.00 | 1.75 | 1.75 | 99 | 1008.8 |
| 20260506181924 | 6 | 303 | 6.4 | 9.7 | 0.00 | 1.75 | 1.75 | 99 | 1009.0 |
| 20260506181422 | 6 | 355 | 4.8 | 6.4 | 0.00 | 1.75 | 1.75 | 99 | 1008.9 |
| 20260506180918 | 6 | 342 | 3.2 | 3.2 | 0.00 | 1.75 | 1.75 | 99 | 1009.0 |
| 20260506180414 | 6 | 345 | 6.4 | 6.4 | 0.18 | 1.75 | 1.75 | 99 | 1009.1 |
| 20260506175912 | 6 | 53 | 3.2 | 3.2 | 0.18 | 1.75 | 1.75 | 99 | 1009.0 |
| 20260506175409 | 6 | 69 | 1.6 | 3.2 | 0.00 | 1.73 | 1.73 | 99 | 1009.1 |
| 20260506174905 | 6 | 52 | 1.6 | 1.6 | 0.13 | 1.73 | 1.73 | 99 | 1009.3 |
| 20260506174403 | 6 | 23 | 3.2 | 4.8 | 0.13 | 1.73 | 1.73 | 99 | 1009.3 |
| 20260506173900 | 6 | 332 | 6.4 | 9.7 | 0.00 | 1.70 | 1.70 | 99 | 1009.2 |
| 20260506173356 | 6 | 334 | 4.8 | 4.8 | 0.00 | 1.70 | 1.70 | 99 | 1009.5 |
| 20260506172854 | 6 | 0 | 4.8 | 6.4 | 0.18 | 1.70 | 1.70 | 99 | 1009.4 |
| 20260506172350 | 6 | 349 | 3.2 | 4.8 | 0.36 | 1.70 | 1.70 | 99 | 1009.3 |
| 20260506171848 | 6 | 336 | 3.2 | 6.4 | 0.30 | 1.68 | 1.68 | 99 | 1009.4 |
| 20260506171344 | 5 | 331 | 6.4 | 9.7 | 0.13 | 1.65 | 1.65 | 99 | 1009.6 |
| 20260506170842 | 5 | 314 | 4.8 | 6.4 | 0.13 | 1.65 | 1.65 | 99 | 1009.4 |
| 20260506170337 | 6 | 348 | 4.8 | 6.4 | 0.18 | 1.63 | 1.63 | 99 | 1009.5 |
| 20260506165831 | 5 | 346 | 4.8 | 6.4 | 0.18 | 1.63 | 1.63 | 99 | 1009.3 |
| 20260506165328 | 6 | 327 | 6.4 | 6.4 | 0.00 | 1.60 | 1.60 | 99 | 1009.4 |
| 20260506164819 | 6 | 351 | 3.2 | 4.8 | 0.00 | 1.60 | 1.60 | 99 | 1009.4 |
| 20260506164316 | 5 | 335 | 8.0 | 9.7 | 0.13 | 1.60 | 1.60 | 99 | 1009.6 |
| 20260506163814 | 6 | 354 | 4.8 | 6.4 | 0.13 | 1.60 | 1.60 | 99 | 1009.9 |
| 20260506163308 | 5 | 1 | 9.7 | 11.3 | 0.30 | 1.60 | 1.60 | 99 | 1009.6 |
| 20260506162803 | 5 | 22 | 3.2 | 4.8 | 0.30 | 1.57 | 1.57 | 99 | 1009.7 |
| 20260506162302 | 5 | 25 | 3.2 | 4.8 | 0.13 | 1.55 | 1.55 | 99 | 1009.8 |
| 20260506161758 | 5 | 344 | 0.0 | 3.2 | 0.79 | 1.52 | 1.52 | 99 | 1009.8 |
| 20260506161256 | 5 | 326 | 11.3 | 12.9 | 0.79 | 1.52 | 1.52 | 99 | 1009.8 |
| 20260506160753 | -17 | 0.0 | 0.0 | 0.00 | 0.00 | 0.00 | 1009.9 | ||
| 20260506160250 | -17 | 0.0 | 0.0 | 0.00 | 0.00 | 0.00 | 1010.1 | ||
| 20260506155744 | -17 | 0.0 | 0.0 | 0.00 | 0.00 | 0.00 | 1010.1 | ||
| 20260506155240 | 5 | 356 | 4.8 | 6.4 | 0.13 | 1.40 | 1.40 | 99 | 1009.8 |
| 20260506153353 | -17 | 0.0 | 0.0 | 0.00 | 0.00 | 0.00 | 1010.1 | ||
| 20260506152850 | -17 | 0.0 | 0.0 | 0.00 | 0.00 | 0.00 | 1010.1 | ||
| 20260506152347 | -17 | 0.0 | 0.0 | 0.00 | 0.00 | 0.00 | 1010.2 | ||
| 20260506151845 | -17 | 0.0 | 0.0 | 0.00 | 0.00 | 0.00 | 1009.7 | ||
| 20260506151342 | -17 | 0.0 | 0.0 | 0.00 | 0.00 | 0.00 | 1010.2 | ||
| 20260506150839 | -17 | 0.0 | 0.0 | 0.00 | 0.00 | 0.00 | 1009.9 | ||
| 20260506150336 | -17 | 0.0 | 0.0 | 0.00 | 0.00 | 0.00 | 1010.0 | ||
| 20260506145832 | -17 | 0.0 | 0.0 | 0.00 | 0.00 | 0.00 | 1009.8 | ||
| 20260506145329 | -17 | 0.0 | 0.0 | 0.00 | 0.00 | 0.00 | 1009.9 | ||
| 20260506144826 | -17 | 0.0 | 0.0 | 0.00 | 0.00 | 0.00 | 1009.6 | ||
| 20260506144323 | -17 | 0.0 | 0.0 | 0.00 | 0.00 | 0.00 | 1009.5 | ||
| 20260506143821 | -17 | 0.0 | 0.0 | 0.00 | 0.00 | 0.00 | 1009.5 | ||
| 20260506143318 | -17 | 0.0 | 0.0 | 0.00 | 0.00 | 0.00 | 1009.6 | ||
| 20260506142816 | -17 | 0.0 | 0.0 | 0.00 | 0.00 | 0.00 | 1009.8 | ||
| 20260506142314 | -17 | 0.0 | 0.0 | 0.00 | 0.00 | 0.00 | 1009.6 | ||
| 20260506141812 | -17 | 0.0 | 0.0 | 0.00 | 0.00 | 0.00 | 1009.6 | ||
| 20260506141310 | -17 | 0.0 | 0.0 | 0.00 | 0.00 | 0.00 | 1009.8 | ||
| 20260506140807 | -17 | 0.0 | 0.0 | 0.00 | 0.00 | 0.00 | 1010.0 | ||
| 20260506140304 | -17 | 0.0 | 0.0 | 0.00 | 0.00 | 0.00 | 1010.0 | ||
| 20260506135801 | -17 | 0.0 | 0.0 | 0.00 | 0.00 | 0.00 | 1009.9 | ||
| 20260506135257 | -17 | 0.0 | 0.0 | 0.00 | 0.00 | 0.00 | 1009.8 | ||
| 20260506134754 | -17 | 0.0 | 0.0 | 0.00 | 0.00 | 0.00 | 1009.7 | ||
| 20260506134250 | -17 | 0.0 | 0.0 | 0.00 | 0.00 | 0.00 | 1009.6 | ||
| 20260506133748 | -17 | 0.0 | 0.0 | 0.00 | 0.00 | 0.00 | 1010.0 | ||
| 20260506133244 | -17 | 0.0 | 0.0 | 0.00 | 0.00 | 0.00 | 1009.7 | ||
| 20260506132741 | -17 | 0.0 | 0.0 | 0.00 | 0.00 | 0.00 | 1009.8 | ||
| 20260506132238 | -17 | 0.0 | 0.0 | 0.00 | 0.00 | 0.00 | 1009.7 | ||
| 20260506131736 | -17 | 0.0 | 0.0 | 0.00 | 0.00 | 0.00 | 1009.9 | ||
| 20260506131232 | -17 | 0.0 | 0.0 | 0.00 | 0.00 | 0.00 | 1009.9 | ||
| 20260506130729 | -17 | 0.0 | 0.0 | 0.00 | 0.00 | 0.00 | 1010.1 | ||
| 20260506130226 | -17 | 0.0 | 0.0 | 0.00 | 0.00 | 0.00 | 1009.9 | ||
| 20260506125724 | -17 | 0.0 | 0.0 | 0.00 | 0.00 | 0.00 | 1010.2 | ||
| 20260506125222 | -17 | 0.0 | 0.0 | 0.00 | 0.00 | 0.00 | 1010.3 | ||
| 20260506124720 | -17 | 0.0 | 0.0 | 0.00 | 0.00 | 0.00 | 1010.4 | ||
| 20260506124217 | -17 | 0.0 | 0.0 | 0.00 | 0.00 | 0.00 | 1010.5 | ||
| 20260506123714 | -17 | 0.0 | 0.0 | 0.00 | 0.00 | 0.00 | 1010.3 | ||
| 20260506123213 | -17 | 0.0 | 0.0 | 0.00 | 0.00 | 0.00 | 1010.4 | ||
| 20260506122709 | -17 | 0.0 | 0.0 | 0.00 | 0.00 | 0.00 | 1010.3 | ||
| 20260506122207 | -17 | 0.0 | 0.0 | 0.00 | 0.00 | 0.00 | 1010.3 | ||
| 20260506121705 | -17 | 0.0 | 0.0 | 0.00 | 0.00 | 0.00 | 1010.4 | ||
| 20260506121201 | -17 | 0.0 | 0.0 | 0.00 | 0.00 | 0.00 | 1010.3 | ||
| 20260506120659 | -17 | 0.0 | 0.0 | 0.00 | 0.00 | 0.00 | 1010.4 | ||
| 20260506120156 | -17 | 0.0 | 0.0 | 0.00 | 0.00 | 0.00 | 1010.6 | ||
| 20260506115654 | -17 | 0.0 | 0.0 | 0.00 | 0.00 | 0.00 | 1011.0 | ||
| 20260506115152 | -17 | 0.0 | 0.0 | 0.00 | 0.00 | 0.00 | 1010.7 | ||
| 20260506114649 | -17 | 0.0 | 0.0 | 0.00 | 0.00 | 0.00 | 1010.9 | ||
| 20260506114147 | -17 | 0.0 | 0.0 | 0.00 | 0.00 | 0.00 | 1010.5 | ||
| 20260506113645 | -17 | 0.0 | 0.0 | 0.00 | 0.00 | 0.00 | 1010.7 | ||
| 20260506113142 | -17 | 0.0 | 0.0 | 0.00 | 0.00 | 0.00 | 1010.8 | ||
| 20260506112638 | -17 | 0.0 | 0.0 | 0.00 | 0.00 | 0.00 | 1010.8 | ||
| 20260506112136 | -17 | 0.0 | 0.0 | 0.00 | 0.00 | 0.00 | 1010.8 | ||
| 20260506111633 | -17 | 0.0 | 0.0 | 0.00 | 0.00 | 0.00 | 1010.7 | ||
| 20260506111131 | -17 | 0.0 | 0.0 | 0.00 | 0.00 | 0.00 | 1010.4 | ||
| 20260506110628 | -17 | 0.0 | 0.0 | 0.00 | 0.00 | 0.00 | 1010.2 | ||
| 20260506110126 | -17 | 0.0 | 0.0 | 0.00 | 0.00 | 0.00 | 1010.1 | ||
| 20260506105622 | -17 | 0.0 | 0.0 | 0.00 | 0.00 | 0.00 | 1009.8 | ||
| 20260506105119 | -17 | 0.0 | 0.0 | 0.00 | 0.00 | 0.00 | 1009.9 | ||
| 20260506104617 | -17 | 0.0 | 0.0 | 0.00 | 0.00 | 0.00 | 1009.8 | ||
| 20260506104114 | 7 | 347 | 6.4 | 9.7 | 0.00 | 0.61 | 0.61 | 99 | 1009.7 |
| 20260506103612 | 7 | 347 | 6.4 | 9.7 | 1.98 | 0.61 | 0.61 | 99 | 1009.9 |
| 20260506103108 | 7 | 0 | 0.0 | 1.6 | 1.98 | 0.61 | 0.61 | 99 | 1010.4 |
| 20260506102607 | -17 | 0.0 | 0.0 | 0.00 | 0.00 | 0.00 | 1010.2 | ||
| 20260506102104 | -17 | 0.0 | 0.0 | 0.00 | 0.00 | 0.00 | 1010.3 | ||
| 20260506101600 | -17 | 0.0 | 0.0 | 0.00 | 0.00 | 0.00 | 1009.9 | ||
| 20260506101057 | -17 | 0.0 | 0.0 | 0.00 | 0.00 | 0.00 | 1010.0 | ||
| 20260506100555 | -17 | 0.0 | 0.0 | 0.00 | 0.00 | 0.00 | 1010.1 | ||
| 20260506100053 | -17 | 0.0 | 0.0 | 0.00 | 0.00 | 0.00 | 1010.2 | ||
| 20260506095552 | -17 | 0.0 | 0.0 | 0.00 | 0.00 | 0.00 | 1010.1 | ||
| 20260506095048 | -17 | 0.0 | 0.0 | 0.00 | 0.00 | 0.00 | 1010.1 | ||
| 20260506094546 | -17 | 0.0 | 0.0 | 0.00 | 0.00 | 0.00 | 1010.1 | ||
| 20260506094043 | -17 | 0.0 | 0.0 | 0.00 | 0.00 | 0.00 | 1009.9 | ||
| 20260506093541 | -17 | 0.0 | 0.0 | 0.00 | 0.00 | 0.00 | 1010.1 | ||
| 20260506093038 | -17 | 0.0 | 0.0 | 0.00 | 0.00 | 0.00 | 1010.1 | ||
| 20260506092536 | -17 | 0.0 | 0.0 | 0.00 | 0.00 | 0.00 | 1010.0 | ||
| 20260506092033 | -17 | 0.0 | 0.0 | 0.00 | 0.00 | 0.00 | 1010.1 | ||
| 20260506091531 | -17 | 0.0 | 0.0 | 0.00 | 0.00 | 0.00 | 1010.0 | ||
| 20260506091028 | -17 | 0.0 | 0.0 | 0.00 | 0.00 | 0.00 | 1010.4 | ||
| 20260506090526 | -17 | 0.0 | 0.0 | 0.00 | 0.00 | 0.00 | 1010.1 | ||
| 20260506090022 | -17 | 0.0 | 0.0 | 0.00 | 0.00 | 0.00 | 1010.3 | ||
| 20260506085519 | -17 | 0.0 | 0.0 | 0.00 | 0.00 | 0.00 | 1010.4 | ||
| 20260506085015 | -17 | 0.0 | 0.0 | 0.00 | 0.00 | 0.00 | 1010.0 | ||
| 20260506084513 | -17 | 0.0 | 0.0 | 0.00 | 0.00 | 0.00 | 1010.3 | ||
| 20260506084008 | -17 | 0.0 | 0.0 | 0.00 | 0.00 | 0.00 | 1010.1 | ||
| 20260506083506 | -17 | 0.0 | 0.0 | 0.00 | 0.00 | 0.00 | 1009.9 | ||
| 20260506083003 | -17 | 0.0 | 0.0 | 0.00 | 0.00 | 0.00 | 1010.0 | ||
| 20260506082500 | -17 | 0.0 | 0.0 | 0.00 | 0.00 | 0.00 | 1010.0 | ||
| 20260506081955 | -17 | 0.0 | 0.0 | 0.00 | 0.00 | 0.00 | 1010.0 | ||
| 20260506081454 | -17 | 0.0 | 0.0 | 0.00 | 0.00 | 0.00 | 1010.1 | ||
| 20260506080951 | -17 | 0.0 | 0.0 | 0.00 | 0.00 | 0.00 | 1010.3 | ||
| 20260506080448 | -17 | 0.0 | 0.0 | 0.00 | 0.00 | 0.00 | 1009.9 | ||
| 20260506073432 | 10 | 60 | 0.0 | 1.6 | 1.68 | 0.28 | 0.28 | 99 | 1010.1 |
| 20260506072929 | 10 | 60 | 0.0 | 1.6 | 1.68 | 0.28 | 0.28 | 99 | 1009.7 |
| 20260506072426 | 10 | 68 | 1.6 | 3.2 | 1.68 | 0.28 | 0.28 | 99 | 1009.7 |
| 20260506071924 | -17 | 0.0 | 0.0 | 0.00 | 0.00 | 0.00 | 1010.3 | ||
| 20260506071422 | -17 | 0.0 | 0.0 | 0.00 | 0.00 | 0.00 | 1010.1 | ||
| 20260506070918 | -17 | 0.0 | 0.0 | 0.00 | 0.00 | 0.00 | 1009.8 | ||
| 20260506070415 | -17 | 0.0 | 0.0 | 0.00 | 0.00 | 0.00 | 1010.0 | ||
| 20260506062353 | -17 | 0.0 | 0.0 | 0.00 | 0.00 | 0.00 | 1010.0 | ||
| 20260506061848 | -17 | 0.0 | 0.0 | 0.00 | 0.00 | 0.00 | 1009.8 | ||
| 20260506061345 | -17 | 0.0 | 0.0 | 0.00 | 0.00 | 0.00 | 1009.6 | ||
| 20260506060843 | -17 | 0.0 | 0.0 | 0.00 | 0.00 | 0.00 | 1009.7 | ||
| 20260506060341 | -17 | 0.0 | 0.0 | 0.00 | 0.00 | 0.00 | 1009.9 | ||
| 20260506051313 | -17 | 0.0 | 0.0 | 0.00 | 0.00 | 0.00 | 1009.5 | ||
| 20260506050811 | -17 | 0.0 | 0.0 | 0.00 | 0.00 | 0.00 | 1009.7 | ||
| 20260506050308 | -17 | 0.0 | 0.0 | 0.00 | 0.00 | 0.00 | 1010.0 | ||
| 20260506044758 | -17 | 0.0 | 0.0 | 0.00 | 0.00 | 0.00 | 1009.7 | ||
| 20260506044256 | -17 | 0.0 | 0.0 | 0.00 | 0.00 | 0.00 | 1009.7 | ||
| 20260506043753 | -17 | 0.0 | 0.0 | 0.00 | 0.00 | 0.00 | 1009.3 | ||
| 20260506043250 | -17 | 0.0 | 0.0 | 0.00 | 0.00 | 0.00 | 1009.4 | ||
| 20260506042749 | -17 | 0.0 | 0.0 | 0.00 | 0.00 | 0.00 | 1009.2 | ||
| 20260506042248 | -17 | 0.0 | 0.0 | 0.00 | 0.00 | 0.00 | 1009.2 | ||
| 20260506041746 | -17 | 0.0 | 0.0 | 0.00 | 0.00 | 0.00 | 1009.2 | ||
| 20260506041242 | -17 | 0.0 | 0.0 | 0.00 | 0.00 | 0.00 | 1009.2 | ||
| 20260506040740 | -17 | 0.0 | 0.0 | 0.00 | 0.00 | 0.00 | 1009.1 | ||
| 20260506040237 | -17 | 0.0 | 0.0 | 0.00 | 0.00 | 0.00 | 1009.1 | ||
| 20260506035733 | -17 | 0.0 | 0.0 | 0.00 | 0.00 | 0.00 | 1009.3 | ||
| 20260506035230 | -17 | 0.0 | 0.0 | 0.00 | 0.00 | 0.00 | 1009.6 | ||
| 20260506034727 | -17 | 0.0 | 0.0 | 0.00 | 0.00 | 0.00 | 1009.4 | ||
| 20260506034224 | -17 | 0.0 | 0.0 | 0.00 | 0.00 | 0.00 | 1009.4 | ||
| 20260506033721 | -17 | 0.0 | 0.0 | 0.00 | 0.00 | 0.00 | 1009.5 | ||
| 20260506033218 | -17 | 0.0 | 0.0 | 0.00 | 0.00 | 0.00 | 1009.2 | ||
| 20260506032715 | -17 | 0.0 | 0.0 | 0.00 | 0.00 | 0.00 | 1009.2 | ||
| 20260506032212 | -17 | 0.0 | 0.0 | 0.00 | 0.00 | 0.00 | 1008.8 | ||
| 20260506031709 | -17 | 0.0 | 0.0 | 0.00 | 0.00 | 0.00 | 1008.9 | ||
| 20260506031206 | -17 | 0.0 | 0.0 | 0.00 | 0.00 | 0.00 | 1008.9 | ||
| 20260506030704 | -17 | 0.0 | 0.0 | 0.00 | 0.00 | 0.00 | 1008.6 | ||
| 20260506030202 | 14 | 337 | 1.6 | 1.6 | 0.00 | 0.25 | 0.25 | 72 | 1008.8 |
| 20260506025658 | 14 | 337 | 1.6 | 1.6 | 0.00 | 0.25 | 0.25 | 72 | 1008.9 |
| 20260506025154 | 14 | 337 | 1.6 | 1.6 | 0.00 | 0.25 | 0.25 | 72 | 1008.7 |
| 20260506024652 | 14 | 21 | 0.0 | 0.0 | 0.00 | 0.25 | 0.25 | 71 | 1008.7 |
| 20260506024148 | 15 | 106 | 0.0 | 0.0 | 0.00 | 0.25 | 0.25 | 71 | 1008.3 |
| 20260506023644 | 15 | 338 | 3.2 | 3.2 | 0.00 | 0.25 | 0.25 | 70 | 1008.3 |
| 20260506023142 | 15 | 289 | 14.5 | 16.1 | 0.00 | 0.25 | 0.25 | 70 | 1008.6 |
| 20260506022639 | 15 | 304 | 12.9 | 14.5 | 0.00 | 0.25 | 0.25 | 71 | 1008.4 |
| 20260506022136 | 15 | 326 | 16.1 | 16.1 | 0.00 | 0.25 | 0.25 | 73 | 1008.5 |
| 20260506021634 | 15 | 153 | 14.5 | 16.1 | 0.00 | 0.25 | 0.25 | 77 | 1008.5 |
| 20260506021131 | 15 | 322 | 9.7 | 12.9 | 0.00 | 0.25 | 0.25 | 84 | 1008.2 |
| 20260506020628 | 15 | 332 | 4.8 | 9.7 | 0.13 | 0.25 | 0.25 | 88 | 1008.0 |
| 20260506020125 | 15 | 23 | 8.0 | 9.7 | 0.13 | 0.25 | 0.25 | 87 | 1007.9 |
| 20260506015623 | 16 | 50 | 3.2 | 3.2 | 0.00 | 0.23 | 0.23 | 87 | 1008.0 |
| 20260506015120 | -17 | 0.0 | 0.0 | 0.00 | 0.00 | 0.00 | 1007.8 | ||
| 20260506014617 | -17 | 0.0 | 0.0 | 0.00 | 0.00 | 0.00 | 1008.0 | ||
| 20260506014112 | -17 | 0.0 | 0.0 | 0.00 | 0.00 | 0.00 | 1007.8 | ||
| 20260506013611 | -17 | 0.0 | 0.0 | 0.00 | 0.00 | 0.00 | 1007.7 | ||
| 20260506013108 | -17 | 0.0 | 0.0 | 0.00 | 0.00 | 0.00 | 1007.7 | ||
| 20260506012604 | -17 | 0.0 | 0.0 | 0.00 | 0.00 | 0.00 | 1007.6 | ||
| 20260506012100 | -17 | 0.0 | 0.0 | 0.00 | 0.00 | 0.00 | 1007.2 | ||
| 20260506011553 | 15 | 115 | 0.0 | 0.0 | 0.18 | 0.23 | 0.23 | 92 | 1007.4 |
| 20260506011048 | 15 | 115 | 0.0 | 0.0 | 0.18 | 0.23 | 0.23 | 92 | 1006.8 |
| 20260506010548 | -17 | 0.0 | 0.0 | 0.00 | 0.00 | 0.00 | 1007.0 | ||
| 20260506010044 | -17 | 0.0 | 0.0 | 0.00 | 0.00 | 0.00 | 1006.7 | ||
| 20260506005542 | -17 | 0.0 | 0.0 | 0.00 | 0.00 | 0.00 | 1006.6 | ||
| 20260506005037 | -17 | 0.0 | 0.0 | 0.00 | 0.00 | 0.00 | 1006.8 | ||
| 20260506004535 | -17 | 0.0 | 0.0 | 0.00 | 0.00 | 0.00 | 1006.8 | ||
| 20260506004031 | -17 | 0.0 | 0.0 | 0.00 | 0.00 | 0.00 | 1006.9 | ||
| 20260506003528 | -17 | 0.0 | 0.0 | 0.00 | 0.00 | 0.00 | 1006.7 |